UAE9875 OMDB-EDDF
Flight info
| Callsign | UAE9875 |
|---|---|
| Flight time | N/A |
| Altitude | 29000 |
| Route | ANVIX L223 TARDI N629 BOTAM Y855 LAKLU/N0501F280 Q204 NALKI G652 TOKRA DCT ALROK DCT BOSOB DCT ITRUX Y511 NAGBO/N0505F300 Y511 PMA Z712 WEJ L677 GESON Q777 RASDA DCT OTHON UN128 RDS UL609 MES DCT EVIVI DCT OKANA DCT NIVIS/N0486F320 DCT BABIT DCT ARSIN DCT BUDEX DCT IPDUL DCT RAPET T170 VAGAB/N0453F240 T170 GAPLA T178 KERAX KERAX5D |
| Aircraft | B77L/H-SDE1E2E3FGHIJ2J3J4J5M1RWXY/LB1D1 |
Departure
| Time | 2026-05-07 12:32 |
|---|---|
| Airport | Dubai International Airport (OMDB) |
Arrival
| Time | N/A |
|---|---|
| Airport | Frankfurt Main Airport (EDDF) |
| Time | Latitude | Longitude | Altitude | Speed | Heading |
|---|---|---|---|---|---|
| 2026-05-07 12:14 | 25.26000 | 55.36619 | 27 ft | 0 kts | 31° |
| 2026-05-07 12:18 | 25.25995 | 55.36616 | 27 ft | 2 kts | 33° |
| 2026-05-07 12:18 | 25.25982 | 55.36606 | 25 ft | 2 kts | 39° |
| 2026-05-07 12:19 | 25.25970 | 55.36593 | 26 ft | 2 kts | 47° |
| 2026-05-07 12:19 | 25.25959 | 55.36579 | 25 ft | 2 kts | 58° |
| 2026-05-07 12:19 | 25.25952 | 55.36563 | 25 ft | 2 kts | 74° |
| 2026-05-07 12:19 | 25.25949 | 55.36545 | 25 ft | 2 kts | 92° |
| 2026-05-07 12:20 | 25.25951 | 55.36527 | 25 ft | 2 kts | 108° |
| 2026-05-07 12:20 | 25.25957 | 55.36512 | 25 ft | 2 kts | 119° |
| 2026-05-07 12:20 | 25.25960 | 55.36507 | 25 ft | 0 kts | 121° |
| 2026-05-07 12:23 | 25.25956 | 55.36513 | 27 ft | 4 kts | 121° |
| 2026-05-07 12:23 | 25.25942 | 55.36539 | 27 ft | 4 kts | 121° |
| 2026-05-07 12:23 | 25.25927 | 55.36566 | 27 ft | 5 kts | 123° |
| 2026-05-07 12:23 | 25.25898 | 55.36617 | 27 ft | 9 kts | 122° |
| 2026-05-07 12:24 | 25.25865 | 55.36675 | 27 ft | 9 kts | 122° |
| 2026-05-07 12:24 | 25.25832 | 55.36733 | 27 ft | 9 kts | 122° |
| 2026-05-07 12:24 | 25.25799 | 55.36791 | 27 ft | 9 kts | 122° |
| 2026-05-07 12:24 | 25.25766 | 55.36848 | 27 ft | 9 kts | 122° |
| 2026-05-07 12:25 | 25.25734 | 55.36906 | 26 ft | 9 kts | 121° |
| 2026-05-07 12:25 | 25.25702 | 55.36965 | 26 ft | 9 kts | 122° |
| 2026-05-07 12:25 | 25.25669 | 55.37023 | 26 ft | 9 kts | 121° |
| 2026-05-07 12:25 | 25.25636 | 55.37083 | 25 ft | 11 kts | 121° |
| 2026-05-07 12:26 | 25.25583 | 55.37176 | 26 ft | 15 kts | 122° |
| 2026-05-07 12:26 | 25.25527 | 55.37276 | 26 ft | 15 kts | 122° |
| 2026-05-07 12:26 | 25.25471 | 55.37376 | 26 ft | 15 kts | 122° |
| 2026-05-07 12:26 | 25.25414 | 55.37476 | 26 ft | 15 kts | 122° |
| 2026-05-07 12:27 | 25.25358 | 55.37575 | 26 ft | 15 kts | 122° |
| 2026-05-07 12:27 | 25.25302 | 55.37676 | 26 ft | 15 kts | 121° |
| 2026-05-07 12:27 | 25.25246 | 55.37775 | 26 ft | 15 kts | 122° |
| 2026-05-07 12:27 | 25.25190 | 55.37876 | 26 ft | 15 kts | 122° |
| 2026-05-07 12:28 | 25.25134 | 55.37976 | 26 ft | 15 kts | 122° |
| 2026-05-07 12:28 | 25.25077 | 55.38075 | 26 ft | 15 kts | 122° |
| 2026-05-07 12:28 | 25.25029 | 55.38154 | 26 ft | 10 kts | 136° |
| 2026-05-07 12:28 | 25.24962 | 55.38153 | 26 ft | 10 kts | 206° |
| 2026-05-07 12:29 | 25.24903 | 55.38115 | 26 ft | 7 kts | 211° |
| 2026-05-07 12:29 | 25.24900 | 55.38113 | 26 ft | 0 kts | 211° |
| 2026-05-07 12:30 | 25.24899 | 55.38112 | 26 ft | 2 kts | 211° |
| 2026-05-07 12:30 | 25.24863 | 55.38088 | 26 ft | 11 kts | 211° |
| 2026-05-07 12:30 | 25.24808 | 55.38044 | 26 ft | 8 kts | 240° |
| 2026-05-07 12:30 | 25.24816 | 55.38006 | 26 ft | 0 kts | 301° |
| 2026-05-07 12:31 | 25.24817 | 55.38004 | 26 ft | 4 kts | 301° |
| 2026-05-07 12:31 | 25.24899 | 55.37859 | 26 ft | 51 kts | 302° |
| 2026-05-07 12:31 | 25.25210 | 55.37298 | 27 ft | 121 kts | 301° |
| 2026-05-07 12:32 | 25.25760 | 55.36308 | 27 ft | 179 kts | 301° |
| 2026-05-07 12:32 | 25.26450 | 55.35069 | 464 ft | 188 kts | 300° |
| 2026-05-07 12:32 | 25.27131 | 55.33808 | 1035 ft | 191 kts | 298° |
| 2026-05-07 12:32 | 25.27811 | 55.32572 | 1670 ft | 189 kts | 298° |
| 2026-05-07 12:33 | 25.29182 | 55.30049 | 2559 ft | 193 kts | 288° |
| 2026-05-07 12:33 | 25.29207 | 55.28600 | 2812 ft | 193 kts | 245° |
| 2026-05-07 12:33 | 25.28601 | 55.27271 | 3120 ft | 201 kts | 245° |
| 2026-05-07 12:34 | 25.27984 | 55.25804 | 3298 ft | 220 kts | 246° |
| 2026-05-07 12:34 | 25.27325 | 55.24230 | 3653 ft | 231 kts | 246° |
| 2026-05-07 12:34 | 25.26636 | 55.22603 | 4132 ft | 237 kts | 246° |
| 2026-05-07 12:34 | 25.25932 | 55.20942 | 4651 ft | 242 kts | 246° |
| 2026-05-07 12:35 | 25.25210 | 55.19242 | 5149 ft | 247 kts | 245° |
| 2026-05-07 12:35 | 25.24305 | 55.17626 | 5564 ft | 253 kts | 223° |
| 2026-05-07 12:35 | 25.22737 | 55.16732 | 5930 ft | 262 kts | 188° |
| 2026-05-07 12:35 | 25.20895 | 55.16748 | 6258 ft | 271 kts | 174° |
| 2026-05-07 12:36 | 25.19072 | 55.17218 | 6672 ft | 270 kts | 148° |
| 2026-05-07 12:36 | 25.17709 | 55.18644 | 7021 ft | 277 kts | 118° |
| 2026-05-07 12:36 | 25.16815 | 55.20564 | 7378 ft | 286 kts | 116° |
| 2026-05-07 12:36 | 25.15887 | 55.22526 | 7964 ft | 291 kts | 117° |
| 2026-05-07 12:37 | 25.14938 | 55.24505 | 8654 ft | 291 kts | 118° |
| 2026-05-07 12:37 | 25.13989 | 55.26483 | 9376 ft | 292 kts | 118° |
| 2026-05-07 12:37 | 25.13047 | 55.28448 | 9990 ft | 295 kts | 119° |
| 2026-05-07 12:37 | 25.12081 | 55.30459 | 10594 ft | 297 kts | 119° |
| 2026-05-07 12:38 | 25.11111 | 55.32475 | 11226 ft | 298 kts | 119° |
| 2026-05-07 12:38 | 25.10179 | 55.34515 | 11885 ft | 298 kts | 116° |
| 2026-05-07 12:38 | 25.09330 | 55.36600 | 12538 ft | 298 kts | 115° |
| 2026-05-07 12:38 | 25.08488 | 55.38685 | 13253 ft | 298 kts | 115° |
| 2026-05-07 12:39 | 25.07633 | 55.40778 | 13789 ft | 301 kts | 115° |
| 2026-05-07 12:39 | 25.06771 | 55.42926 | 14168 ft | 311 kts | 114° |
| 2026-05-07 12:39 | 25.05889 | 55.45222 | 14298 ft | 331 kts | 114° |
| 2026-05-07 12:39 | 25.04974 | 55.47624 | 14451 ft | 349 kts | 114° |
| 2026-05-07 12:40 | 25.04003 | 55.50159 | 14576 ft | 368 kts | 114° |
| 2026-05-07 12:40 | 25.02979 | 55.52820 | 14696 ft | 385 kts | 114° |
| 2026-05-07 12:40 | 25.01928 | 55.55528 | 15085 ft | 394 kts | 115° |
| 2026-05-07 12:40 | 25.00652 | 55.58218 | 15545 ft | 399 kts | 121° |
| 2026-05-07 12:41 | 24.99171 | 55.60850 | 15952 ft | 407 kts | 123° |
| 2026-05-07 12:41 | 24.97644 | 55.63503 | 16449 ft | 412 kts | 122° |
| 2026-05-07 12:41 | 24.96142 | 55.66204 | 17026 ft | 415 kts | 121° |
| 2026-05-07 12:41 | 24.94655 | 55.68942 | 17554 ft | 419 kts | 121° |
| 2026-05-07 12:42 | 24.93095 | 55.71678 | 18016 ft | 424 kts | 124° |
| 2026-05-07 12:42 | 24.91355 | 55.74325 | 18425 ft | 429 kts | 127° |
| 2026-05-07 12:42 | 24.89543 | 55.76951 | 18887 ft | 432 kts | 127° |
| 2026-05-07 12:42 | 24.87728 | 55.79602 | 19336 ft | 435 kts | 127° |
| 2026-05-07 12:43 | 24.85919 | 55.82299 | 19763 ft | 440 kts | 126° |
| 2026-05-07 12:43 | 24.84110 | 55.85027 | 20230 ft | 442 kts | 126° |
| 2026-05-07 12:43 | 24.82284 | 55.87758 | 20710 ft | 445 kts | 127° |
| 2026-05-07 12:43 | 24.80430 | 55.90504 | 21120 ft | 448 kts | 127° |
| 2026-05-07 12:44 | 24.78557 | 55.93268 | 21497 ft | 453 kts | 127° |
| 2026-05-07 12:44 | 24.76530 | 55.95864 | 21874 ft | 455 kts | 136° |
| 2026-05-07 12:44 | 24.74177 | 55.98210 | 22290 ft | 458 kts | 140° |
| 2026-05-07 12:44 | 24.71761 | 56.00510 | 22714 ft | 461 kts | 139° |
| 2026-05-07 12:45 | 24.69371 | 56.02885 | 23114 ft | 465 kts | 138° |
| 2026-05-07 12:45 | 24.66992 | 56.05324 | 23462 ft | 469 kts | 138° |
| 2026-05-07 12:45 | 24.64602 | 56.07788 | 23756 ft | 473 kts | 137° |
| 2026-05-07 12:45 | 24.62198 | 56.10258 | 24115 ft | 474 kts | 138° |
| 2026-05-07 12:46 | 24.59778 | 56.12735 | 24487 ft | 476 kts | 138° |
| 2026-05-07 12:46 | 24.57363 | 56.15236 | 24823 ft | 479 kts | 137° |
| 2026-05-07 12:46 | 24.55074 | 56.17919 | 25071 ft | 484 kts | 132° |
| 2026-05-07 12:46 | 24.52882 | 56.20741 | 25330 ft | 488 kts | 131° |
| 2026-05-07 12:47 | 24.50530 | 56.23396 | 25560 ft | 485 kts | 145° |
| 2026-05-07 12:47 | 24.47576 | 56.25134 | 25734 ft | 483 kts | 165° |
| 2026-05-07 12:47 | 24.44285 | 56.25713 | 26084 ft | 479 kts | 181° |
| 2026-05-07 12:47 | 24.40986 | 56.25422 | 26470 ft | 475 kts | 193° |
| 2026-05-07 12:48 | 24.37795 | 56.24508 | 26738 ft | 475 kts | 198° |
| 2026-05-07 12:48 | 24.34610 | 56.23478 | 26973 ft | 479 kts | 198° |
| 2026-05-07 12:48 | 24.31410 | 56.22428 | 27277 ft | 482 kts | 198° |
| 2026-05-07 12:48 | 24.28184 | 56.21378 | 27604 ft | 484 kts | 198° |
| 2026-05-07 12:49 | 24.24953 | 56.20340 | 27954 ft | 485 kts | 198° |
| 2026-05-07 12:49 | 24.21713 | 56.19314 | 28297 ft | 486 kts | 198° |
| 2026-05-07 12:49 | 24.18455 | 56.18294 | 28607 ft | 487 kts | 198° |
| 2026-05-07 12:49 | 24.15189 | 56.17279 | 28884 ft | 489 kts | 198° |
| 2026-05-07 12:50 | 24.11908 | 56.16263 | 29130 ft | 491 kts | 198° |
| 2026-05-07 12:50 | 24.08610 | 56.15244 | 29393 ft | 493 kts | 198° |
| 2026-05-07 12:50 | 24.05304 | 56.14221 | 29646 ft | 495 kts | 198° |
| 2026-05-07 12:50 | 24.01981 | 56.13194 | 29820 ft | 498 kts | 198° |
| 2026-05-07 12:51 | 23.95362 | 56.11150 | 29891 ft | 495 kts | 198° |
| 2026-05-07 12:51 | 23.88747 | 56.09107 | 29881 ft | 493 kts | 198° |
| 2026-05-07 12:52 | 23.82148 | 56.07071 | 29882 ft | 493 kts | 198° |
| 2026-05-07 12:52 | 23.75549 | 56.05037 | 29883 ft | 493 kts | 198° |
| 2026-05-07 12:53 | 23.68929 | 56.02999 | 29882 ft | 494 kts | 198° |
| 2026-05-07 12:53 | 23.62305 | 56.00961 | 29875 ft | 495 kts | 198° |
| 2026-05-07 12:54 | 23.56786 | 55.99265 | 29858 ft | 496 kts | 198° |
| 2026-05-07 12:54 | 23.50133 | 55.97223 | 29855 ft | 497 kts | 198° |
| 2026-05-07 12:55 | 23.43477 | 55.95182 | 29854 ft | 497 kts | 198° |
| 2026-05-07 12:55 | 23.36816 | 55.93142 | 29853 ft | 497 kts | 198° |
| 2026-05-07 12:56 | 23.30155 | 55.91103 | 29853 ft | 497 kts | 198° |
| 2026-05-07 12:56 | 23.23497 | 55.89068 | 29846 ft | 497 kts | 198° |
| 2026-05-07 12:57 | 23.16840 | 55.87035 | 29833 ft | 497 kts | 198° |
| 2026-05-07 12:57 | 23.13510 | 55.86019 | 31182 ft | 497 kts | 197° |
| 2026-05-07 12:57 | 23.10179 | 55.85002 | 30933 ft | 497 kts | 196° |
| 2026-05-07 12:58 | 23.06838 | 55.83983 | 30674 ft | 498 kts | 195° |
| 2026-05-07 12:58 | 23.03520 | 55.82973 | 30433 ft | 493 kts | 195° |
| 2026-05-07 12:58 | 23.00231 | 55.81972 | 30225 ft | 489 kts | 195° |
| 2026-05-07 12:58 | 22.96965 | 55.80978 | 30125 ft | 486 kts | 195° |
| 2026-05-07 12:59 | 22.90405 | 55.78984 | 30034 ft | 494 kts | 195° |
| 2026-05-07 12:59 | 22.83775 | 55.76969 | 30002 ft | 495 kts | 195° |
| 2026-05-07 13:00 | 22.80563 | 55.75713 | 29987 ft | 490 kts | 209° |
| 2026-05-07 13:00 | 22.77867 | 55.73481 | 30021 ft | 490 kts | 228° |
| 2026-05-07 13:00 | 22.75982 | 55.70425 | 30019 ft | 490 kts | 245° |
| 2026-05-07 13:00 | 22.74818 | 55.66958 | 29995 ft | 491 kts | 256° |
| 2026-05-07 13:01 | 22.74323 | 55.63300 | 30014 ft | 490 kts | 268° |
| 2026-05-07 13:01 | 22.74311 | 55.60678 | 30002 ft | 491 kts | 271° |
| 2026-05-07 13:01 | 22.74491 | 55.54238 | 30018 ft | 494 kts | 272° |
| 2026-05-07 13:02 | 22.74747 | 55.46779 | 30000 ft | 496 kts | 272° |
| 2026-05-07 13:02 | 22.74924 | 55.39301 | 30000 ft | 497 kts | 271° |
| 2026-05-07 13:03 | 22.75043 | 55.31821 | 30001 ft | 496 kts | 271° |
| 2026-05-07 13:03 | 22.75144 | 55.24352 | 30000 ft | 495 kts | 271° |
| 2026-05-07 13:04 | 22.75243 | 55.16904 | 30001 ft | 494 kts | 271° |
| 2026-05-07 13:04 | 22.75342 | 55.09524 | 30002 ft | 493 kts | 271° |
| 2026-05-07 13:05 | 22.75439 | 55.02100 | 30002 ft | 492 kts | 271° |
| 2026-05-07 13:05 | 22.75532 | 54.94690 | 30002 ft | 492 kts | 271° |
| 2026-05-07 13:06 | 22.75623 | 54.87229 | 30415 ft | 496 kts | 271° |
| 2026-05-07 13:06 | 22.75666 | 54.83509 | 30843 ft | 493 kts | 271° |
| 2026-05-07 13:06 | 22.75709 | 54.79803 | 31281 ft | 491 kts | 271° |
| 2026-05-07 13:07 | 22.75751 | 54.76114 | 31683 ft | 489 kts | 270° |
| 2026-05-07 13:07 | 22.75792 | 54.72440 | 31947 ft | 490 kts | 270° |
| 2026-05-07 13:07 | 22.75871 | 54.65013 | 31998 ft | 492 kts | 270° |
| 2026-05-07 13:08 | 22.75947 | 54.57640 | 31998 ft | 487 kts | 270° |
| 2026-05-07 13:08 | 22.76019 | 54.50317 | 32004 ft | 486 kts | 270° |
| 2026-05-07 13:09 | 22.76087 | 54.42995 | 32002 ft | 486 kts | 270° |
| 2026-05-07 13:09 | 22.76153 | 54.35666 | 32002 ft | 487 kts | 270° |
| 2026-05-07 13:10 | 22.76215 | 54.28318 | 32002 ft | 488 kts | 270° |
| 2026-05-07 13:10 | 22.76273 | 54.20967 | 32002 ft | 488 kts | 270° |
| 2026-05-07 13:11 | 22.76329 | 54.13608 | 32001 ft | 489 kts | 270° |
| 2026-05-07 13:11 | 22.76381 | 54.06236 | 32002 ft | 489 kts | 270° |
| 2026-05-07 13:12 | 22.76429 | 53.98910 | 32001 ft | 490 kts | 270° |
| 2026-05-07 13:12 | 22.76475 | 53.91534 | 32001 ft | 490 kts | 270° |
| 2026-05-07 13:13 | 22.76517 | 53.84156 | 32000 ft | 489 kts | 270° |
| 2026-05-07 13:13 | 22.76555 | 53.76782 | 32002 ft | 489 kts | 270° |
| 2026-05-07 13:14 | 22.76590 | 53.69414 | 32001 ft | 489 kts | 270° |
| 2026-05-07 13:14 | 22.76622 | 53.62049 | 32001 ft | 489 kts | 270° |
| 2026-05-07 13:15 | 22.76650 | 53.54692 | 32001 ft | 488 kts | 270° |
| 2026-05-07 13:15 | 22.76676 | 53.47330 | 32001 ft | 488 kts | 270° |
| 2026-05-07 13:16 | 22.76697 | 53.40015 | 32001 ft | 488 kts | 270° |
| 2026-05-07 13:16 | 22.76715 | 53.32657 | 32001 ft | 488 kts | 270° |
| 2026-05-07 13:17 | 22.76730 | 53.25293 | 32002 ft | 488 kts | 270° |
| 2026-05-07 13:17 | 22.76742 | 53.17936 | 32001 ft | 488 kts | 270° |
| 2026-05-07 13:18 | 22.76750 | 53.10576 | 32001 ft | 488 kts | 270° |
| 2026-05-07 13:18 | 22.76755 | 53.03217 | 32001 ft | 488 kts | 270° |
| 2026-05-07 13:19 | 22.76756 | 52.95859 | 32001 ft | 488 kts | 270° |
| 2026-05-07 13:19 | 22.76754 | 52.88493 | 32001 ft | 489 kts | 270° |
| 2026-05-07 13:20 | 22.76749 | 52.81133 | 32001 ft | 489 kts | 270° |
| 2026-05-07 13:20 | 22.76740 | 52.73771 | 32001 ft | 489 kts | 270° |
| 2026-05-07 13:21 | 22.76728 | 52.66408 | 32001 ft | 489 kts | 270° |
| 2026-05-07 13:21 | 22.76713 | 52.59048 | 32001 ft | 489 kts | 270° |
| 2026-05-07 13:22 | 22.76694 | 52.51732 | 32001 ft | 488 kts | 270° |
| 2026-05-07 13:22 | 22.76672 | 52.44371 | 32001 ft | 488 kts | 270° |
| 2026-05-07 13:23 | 22.76646 | 52.37015 | 32001 ft | 488 kts | 270° |
| 2026-05-07 13:23 | 22.76617 | 52.29654 | 32001 ft | 488 kts | 270° |
| 2026-05-07 13:24 | 22.76585 | 52.22299 | 32001 ft | 488 kts | 270° |
| 2026-05-07 13:24 | 22.76549 | 52.14942 | 32001 ft | 488 kts | 270° |
| 2026-05-07 13:25 | 22.76510 | 52.07588 | 32001 ft | 488 kts | 270° |
| 2026-05-07 13:25 | 22.76468 | 52.00226 | 32001 ft | 488 kts | 269° |
| 2026-05-07 13:26 | 22.76422 | 51.92871 | 32001 ft | 488 kts | 269° |
| 2026-05-07 13:26 | 22.76373 | 51.85515 | 32001 ft | 488 kts | 269° |
| 2026-05-07 13:27 | 22.76320 | 51.78163 | 32001 ft | 488 kts | 269° |
| 2026-05-07 13:27 | 22.76265 | 51.70808 | 32001 ft | 488 kts | 269° |
| 2026-05-07 13:28 | 22.76205 | 51.63452 | 32001 ft | 488 kts | 269° |
| 2026-05-07 13:28 | 22.76143 | 51.56095 | 32001 ft | 488 kts | 269° |
| 2026-05-07 13:29 | 22.76077 | 51.48737 | 32001 ft | 488 kts | 269° |
| 2026-05-07 13:29 | 22.76007 | 51.41384 | 32001 ft | 488 kts | 269° |
| 2026-05-07 13:30 | 22.75935 | 51.34079 | 32001 ft | 488 kts | 269° |
| 2026-05-07 13:30 | 22.75859 | 51.26719 | 32001 ft | 488 kts | 269° |
| 2026-05-07 13:31 | 22.75780 | 51.19359 | 32001 ft | 488 kts | 269° |
| 2026-05-07 13:31 | 22.75697 | 51.12004 | 32001 ft | 488 kts | 269° |
| 2026-05-07 13:32 | 22.75611 | 51.04644 | 32001 ft | 489 kts | 269° |
| 2026-05-07 13:32 | 22.75521 | 50.97283 | 32001 ft | 489 kts | 269° |
| 2026-05-07 13:33 | 22.75428 | 50.89921 | 32001 ft | 489 kts | 269° |
| 2026-05-07 13:33 | 22.75332 | 50.82559 | 32001 ft | 489 kts | 269° |
| 2026-05-07 13:34 | 22.75181 | 50.71508 | 32001 ft | 489 kts | 269° |
| 2026-05-07 13:35 | 22.75076 | 50.64194 | 32001 ft | 489 kts | 269° |
| 2026-05-07 13:35 | 22.74968 | 50.56831 | 32001 ft | 489 kts | 269° |
| 2026-05-07 13:36 | 22.74857 | 50.49466 | 32001 ft | 489 kts | 269° |
| 2026-05-07 13:36 | 22.74742 | 50.42102 | 32001 ft | 489 kts | 269° |
| 2026-05-07 13:37 | 22.74623 | 50.34735 | 32001 ft | 489 kts | 269° |
| 2026-05-07 13:37 | 22.74502 | 50.27373 | 32001 ft | 489 kts | 269° |
| 2026-05-07 13:38 | 22.74376 | 50.20003 | 32001 ft | 489 kts | 269° |
| 2026-05-07 13:38 | 22.74248 | 50.12632 | 32001 ft | 489 kts | 269° |
| 2026-05-07 13:39 | 22.74116 | 50.05271 | 32001 ft | 489 kts | 269° |
| 2026-05-07 13:39 | 22.73981 | 49.97905 | 32001 ft | 489 kts | 269° |
| 2026-05-07 13:40 | 22.73843 | 49.90591 | 32001 ft | 489 kts | 269° |
| 2026-05-07 13:40 | 22.73701 | 49.83227 | 32001 ft | 489 kts | 269° |
| 2026-05-07 13:41 | 22.73556 | 49.75859 | 32001 ft | 489 kts | 269° |
| 2026-05-07 13:41 | 22.73407 | 49.68493 | 32001 ft | 489 kts | 269° |
| 2026-05-07 13:42 | 22.73255 | 49.61126 | 32001 ft | 489 kts | 269° |
| 2026-05-07 13:42 | 22.73099 | 49.53762 | 32001 ft | 489 kts | 269° |
| 2026-05-07 13:43 | 22.72940 | 49.46389 | 32001 ft | 489 kts | 269° |
| 2026-05-07 13:43 | 22.72778 | 49.39020 | 32001 ft | 489 kts | 269° |
| 2026-05-07 13:44 | 22.72641 | 49.32897 | 32001 ft | 489 kts | 269° |
| 2026-05-07 13:44 | 22.72444 | 49.24332 | 32001 ft | 489 kts | 268° |
| 2026-05-07 13:45 | 22.72300 | 49.18160 | 32002 ft | 489 kts | 268° |
| 2026-05-07 13:45 | 22.72125 | 49.10797 | 32001 ft | 489 kts | 268° |
| 2026-05-07 13:46 | 22.71946 | 49.03429 | 32001 ft | 489 kts | 268° |
| 2026-05-07 13:46 | 22.71764 | 48.96062 | 32001 ft | 489 kts | 268° |
| 2026-05-07 13:47 | 22.71580 | 48.88747 | 32001 ft | 489 kts | 268° |
| 2026-05-07 13:47 | 22.71392 | 48.81376 | 32001 ft | 490 kts | 268° |
| 2026-05-07 13:48 | 22.71199 | 48.74003 | 32002 ft | 490 kts | 268° |
| 2026-05-07 13:48 | 22.71004 | 48.66631 | 32001 ft | 490 kts | 268° |
| 2026-05-07 13:49 | 22.70804 | 48.59253 | 32001 ft | 490 kts | 268° |
| 2026-05-07 13:49 | 22.70602 | 48.51874 | 32001 ft | 490 kts | 268° |
| 2026-05-07 13:50 | 22.70396 | 48.44495 | 32001 ft | 490 kts | 268° |
| 2026-05-07 13:50 | 22.70187 | 48.37116 | 32001 ft | 490 kts | 268° |
| 2026-05-07 13:51 | 22.69974 | 48.29731 | 32001 ft | 490 kts | 268° |
| 2026-05-07 13:51 | 22.69758 | 48.22356 | 32001 ft | 490 kts | 268° |
| 2026-05-07 13:52 | 22.69539 | 48.14977 | 32001 ft | 490 kts | 268° |
| 2026-05-07 13:52 | 22.69316 | 48.07603 | 32001 ft | 490 kts | 268° |
| 2026-05-07 13:53 | 22.69405 | 48.00230 | 32002 ft | 489 kts | 275° |
| 2026-05-07 13:53 | 22.70061 | 47.92889 | 32000 ft | 490 kts | 276° |
| 2026-05-07 13:54 | 22.70716 | 47.85544 | 32002 ft | 490 kts | 275° |
| 2026-05-07 13:54 | 22.71335 | 47.78193 | 32001 ft | 491 kts | 275° |
| 2026-05-07 13:55 | 22.71935 | 47.70876 | 32002 ft | 491 kts | 275° |
| 2026-05-07 13:55 | 22.72534 | 47.63509 | 32001 ft | 491 kts | 275° |
| 2026-05-07 13:56 | 22.73133 | 47.56137 | 32001 ft | 491 kts | 275° |
| 2026-05-07 13:56 | 22.73729 | 47.48761 | 32001 ft | 492 kts | 275° |
| 2026-05-07 13:57 | 22.74321 | 47.41381 | 32001 ft | 492 kts | 275° |
| 2026-05-07 13:57 | 22.74911 | 47.33994 | 32001 ft | 492 kts | 275° |
| 2026-05-07 13:58 | 22.75498 | 47.26608 | 32001 ft | 492 kts | 275° |
| 2026-05-07 13:58 | 22.76081 | 47.19217 | 32001 ft | 492 kts | 275° |
| 2026-05-07 13:59 | 22.76664 | 47.11868 | 32001 ft | 492 kts | 275° |
| 2026-05-07 13:59 | 22.77257 | 47.04476 | 32001 ft | 492 kts | 275° |
| 2026-05-07 14:00 | 22.77845 | 46.97086 | 32002 ft | 492 kts | 275° |
| 2026-05-07 14:00 | 22.78430 | 46.89686 | 32001 ft | 493 kts | 275° |
| 2026-05-07 14:01 | 22.79010 | 46.82293 | 32001 ft | 493 kts | 275° |
| 2026-05-07 14:01 | 22.79587 | 46.74899 | 32001 ft | 493 kts | 275° |
| 2026-05-07 14:02 | 22.80161 | 46.67498 | 32001 ft | 493 kts | 275° |
| 2026-05-07 14:02 | 22.80731 | 46.60098 | 32001 ft | 493 kts | 275° |
| 2026-05-07 14:03 | 22.81298 | 46.52692 | 32001 ft | 493 kts | 275° |
| 2026-05-07 14:03 | 22.81862 | 46.45285 | 32001 ft | 493 kts | 275° |
| 2026-05-07 14:04 | 22.82420 | 46.37911 | 32001 ft | 494 kts | 275° |
| 2026-05-07 14:04 | 22.82971 | 46.30487 | 32001 ft | 494 kts | 274° |
| 2026-05-07 14:05 | 22.83516 | 46.23053 | 32002 ft | 495 kts | 274° |
| 2026-05-07 14:05 | 22.84060 | 46.15615 | 32000 ft | 495 kts | 274° |
| 2026-05-07 14:06 | 22.84600 | 46.08171 | 32007 ft | 495 kts | 274° |
| 2026-05-07 14:06 | 22.85137 | 46.00740 | 32000 ft | 494 kts | 274° |
| 2026-05-07 14:07 | 22.85669 | 45.93321 | 31999 ft | 493 kts | 274° |
| 2026-05-07 14:07 | 22.86197 | 45.85918 | 32001 ft | 492 kts | 274° |
| 2026-05-07 14:08 | 22.86720 | 45.78524 | 32001 ft | 491 kts | 274° |
| 2026-05-07 14:08 | 22.87240 | 45.71137 | 32001 ft | 491 kts | 274° |
| 2026-05-07 14:09 | 22.87756 | 45.63749 | 32002 ft | 491 kts | 274° |
| 2026-05-07 14:09 | 22.88269 | 45.56359 | 32002 ft | 492 kts | 274° |
| 2026-05-07 14:10 | 22.88779 | 45.48961 | 32002 ft | 492 kts | 274° |
| 2026-05-07 14:10 | 22.89286 | 45.41555 | 32001 ft | 493 kts | 274° |
| 2026-05-07 14:11 | 22.89790 | 45.34141 | 32002 ft | 493 kts | 274° |
| 2026-05-07 14:11 | 22.90288 | 45.26764 | 32002 ft | 494 kts | 274° |
| 2026-05-07 14:12 | 22.90786 | 45.19338 | 32001 ft | 494 kts | 274° |
| 2026-05-07 14:12 | 22.91281 | 45.11911 | 32000 ft | 494 kts | 274° |
| 2026-05-07 14:13 | 22.91773 | 45.04472 | 32001 ft | 494 kts | 274° |
| 2026-05-07 14:13 | 22.92263 | 44.97042 | 32000 ft | 494 kts | 274° |
| 2026-05-07 14:14 | 22.92749 | 44.89614 | 32002 ft | 494 kts | 274° |
| 2026-05-07 14:14 | 22.93231 | 44.82184 | 32001 ft | 494 kts | 274° |
| 2026-05-07 14:15 | 22.93711 | 44.74754 | 32002 ft | 494 kts | 274° |
| 2026-05-07 14:15 | 22.94404 | 44.67353 | 31999 ft | 494 kts | 280° |
| 2026-05-07 14:16 | 22.96219 | 44.60231 | 32010 ft | 493 kts | 289° |
| 2026-05-07 14:16 | 22.98459 | 44.53197 | 32002 ft | 493 kts | 289° |
| 2026-05-07 14:17 | 23.00675 | 44.46147 | 32001 ft | 494 kts | 289° |
| 2026-05-07 14:17 | 23.02861 | 44.39077 | 32002 ft | 494 kts | 288° |
| 2026-05-07 14:18 | 23.05034 | 44.32005 | 32001 ft | 494 kts | 288° |
| 2026-05-07 14:18 | 23.07205 | 44.24926 | 32001 ft | 494 kts | 288° |
| 2026-05-07 14:19 | 23.09373 | 44.17848 | 32001 ft | 494 kts | 288° |
| 2026-05-07 14:19 | 23.11542 | 44.10761 | 32000 ft | 494 kts | 288° |
| 2026-05-07 14:20 | 23.13706 | 44.03672 | 32001 ft | 494 kts | 288° |
| 2026-05-07 14:20 | 23.15869 | 43.96577 | 32001 ft | 495 kts | 288° |
| 2026-05-07 14:21 | 23.18032 | 43.89469 | 32004 ft | 495 kts | 288° |
| 2026-05-07 14:21 | 23.20189 | 43.82368 | 32000 ft | 495 kts | 288° |
| 2026-05-07 14:22 | 23.22343 | 43.75261 | 32001 ft | 495 kts | 288° |
| 2026-05-07 14:22 | 23.24495 | 43.68149 | 32002 ft | 495 kts | 288° |
| 2026-05-07 14:23 | 23.26628 | 43.61089 | 32001 ft | 495 kts | 288° |
| 2026-05-07 14:23 | 23.28772 | 43.53978 | 32001 ft | 494 kts | 288° |
| 2026-05-07 14:24 | 23.30910 | 43.46864 | 32001 ft | 494 kts | 288° |
| 2026-05-07 14:24 | 23.33041 | 43.39752 | 32001 ft | 494 kts | 288° |
| 2026-05-07 14:25 | 23.35170 | 43.32640 | 32000 ft | 495 kts | 288° |
| 2026-05-07 14:25 | 23.37298 | 43.25517 | 32003 ft | 495 kts | 288° |
| 2026-05-07 14:26 | 23.39425 | 43.18385 | 32001 ft | 495 kts | 288° |
| 2026-05-07 14:26 | 23.41547 | 43.11253 | 32002 ft | 495 kts | 288° |
| 2026-05-07 14:27 | 23.43658 | 43.04110 | 32001 ft | 496 kts | 288° |
| 2026-05-07 14:27 | 23.45764 | 42.96965 | 32001 ft | 496 kts | 288° |
| 2026-05-07 14:28 | 23.47868 | 42.89817 | 32001 ft | 496 kts | 288° |
| 2026-05-07 14:28 | 23.49969 | 42.82667 | 32001 ft | 495 kts | 288° |
| 2026-05-07 14:29 | 23.52068 | 42.75514 | 32002 ft | 495 kts | 288° |
| 2026-05-07 14:29 | 23.54159 | 42.68419 | 32001 ft | 495 kts | 288° |
| 2026-05-07 14:30 | 23.56271 | 42.61275 | 32001 ft | 495 kts | 288° |
| 2026-05-07 14:30 | 23.58376 | 42.54130 | 32001 ft | 495 kts | 288° |
| 2026-05-07 14:31 | 23.60478 | 42.46977 | 32001 ft | 495 kts | 288° |
| 2026-05-07 14:31 | 23.62575 | 42.39827 | 32002 ft | 495 kts | 288° |
| 2026-05-07 14:32 | 23.64669 | 42.32675 | 32001 ft | 495 kts | 288° |
| 2026-05-07 14:32 | 23.66754 | 42.25523 | 32001 ft | 495 kts | 287° |
| 2026-05-07 14:33 | 23.68470 | 42.19566 | 32002 ft | 495 kts | 287° |
| 2026-05-07 14:33 | 23.70529 | 42.12396 | 32002 ft | 495 kts | 287° |
| 2026-05-07 14:34 | 23.72588 | 42.05224 | 32001 ft | 495 kts | 287° |
| 2026-05-07 14:34 | 23.74645 | 41.98051 | 32001 ft | 495 kts | 287° |
| 2026-05-07 14:35 | 23.76724 | 41.90893 | 32001 ft | 495 kts | 288° |
| 2026-05-07 14:35 | 23.78809 | 41.83729 | 32001 ft | 495 kts | 288° |
| 2026-05-07 14:36 | 23.80885 | 41.76568 | 32001 ft | 495 kts | 287° |
| 2026-05-07 14:36 | 23.82948 | 41.69396 | 32001 ft | 495 kts | 287° |
| 2026-05-07 14:37 | 23.84990 | 41.62271 | 32001 ft | 495 kts | 287° |
| 2026-05-07 14:37 | 23.88070 | 41.51513 | 32001 ft | 495 kts | 287° |
| 2026-05-07 14:38 | 23.90116 | 41.44334 | 32001 ft | 495 kts | 287° |
| 2026-05-07 14:38 | 23.92162 | 41.37146 | 32002 ft | 495 kts | 287° |
| 2026-05-07 14:39 | 23.94203 | 41.29961 | 32001 ft | 495 kts | 287° |
| 2026-05-07 14:39 | 23.96239 | 41.22775 | 32001 ft | 495 kts | 287° |
| 2026-05-07 14:40 | 23.98271 | 41.15585 | 32001 ft | 495 kts | 287° |
| 2026-05-07 14:40 | 24.00299 | 41.08398 | 32001 ft | 495 kts | 287° |
| 2026-05-07 14:41 | 24.02311 | 41.01257 | 32001 ft | 495 kts | 287° |
| 2026-05-07 14:41 | 24.04333 | 40.94064 | 32002 ft | 494 kts | 287° |
| 2026-05-07 14:42 | 24.06349 | 40.86872 | 32001 ft | 494 kts | 287° |
| 2026-05-07 14:42 | 24.08359 | 40.79680 | 32001 ft | 494 kts | 287° |
| 2026-05-07 14:43 | 24.10366 | 40.72489 | 32001 ft | 494 kts | 287° |
| 2026-05-07 14:43 | 24.12371 | 40.65292 | 32002 ft | 494 kts | 287° |
| 2026-05-07 14:44 | 24.14371 | 40.58095 | 32001 ft | 494 kts | 287° |
| 2026-05-07 14:44 | 24.16513 | 40.50945 | 31993 ft | 494 kts | 292° |
| 2026-05-07 14:45 | 24.19585 | 40.44227 | 32008 ft | 493 kts | 298° |
| 2026-05-07 14:45 | 24.22808 | 40.37640 | 32002 ft | 494 kts | 298° |
| 2026-05-07 14:46 | 24.26018 | 40.30989 | 32002 ft | 494 kts | 297° |
| 2026-05-07 14:46 | 24.29202 | 40.24318 | 32001 ft | 494 kts | 297° |
| 2026-05-07 14:47 | 24.32378 | 40.17643 | 32001 ft | 494 kts | 297° |
| 2026-05-07 14:47 | 24.35552 | 40.10966 | 32001 ft | 494 kts | 297° |
| 2026-05-07 14:48 | 24.38728 | 40.04278 | 32001 ft | 494 kts | 297° |
| 2026-05-07 14:48 | 24.41897 | 39.97598 | 32001 ft | 494 kts | 297° |
| 2026-05-07 14:49 | 24.45063 | 39.90912 | 32001 ft | 494 kts | 297° |
| 2026-05-07 14:49 | 24.48227 | 39.84221 | 32001 ft | 494 kts | 297° |
| 2026-05-07 14:50 | 24.51365 | 39.77577 | 32002 ft | 493 kts | 297° |
| 2026-05-07 14:50 | 24.55017 | 39.71220 | 32006 ft | 492 kts | 310° |
| 2026-05-07 14:51 | 24.59995 | 39.66086 | 32003 ft | 492 kts | 324° |
| 2026-05-07 14:51 | 24.65583 | 39.61723 | 32001 ft | 492 kts | 324° |
| 2026-05-07 14:52 | 24.71166 | 39.57356 | 32004 ft | 493 kts | 324° |
| 2026-05-07 14:52 | 24.76737 | 39.52929 | 32004 ft | 494 kts | 324° |
| 2026-05-07 14:53 | 24.82303 | 39.48474 | 32002 ft | 495 kts | 324° |
| 2026-05-07 14:53 | 24.87881 | 39.44002 | 32006 ft | 496 kts | 324° |
| 2026-05-07 14:54 | 24.93465 | 39.39524 | 32003 ft | 496 kts | 324° |
| 2026-05-07 14:54 | 24.99034 | 39.35054 | 32000 ft | 495 kts | 324° |